Time;durP1;ratioP1;P1;durP2;ratioP2;P2;SDS_P1;SDS_P2;PMS_P1;PMS_P2;Temp;Humidity;BMP_temperature;BMP_pressure;BME280_temperature;BME280_humidity;BME280_pressure;Samples;Min_cycle;Max_cycle;Signal;HPM_P1;HPM_P2
2021/05/09 00:01:46;;;;;;;0.30;0.10;;;;;;;-142.37;100.00;59669.53;5071173;28;20029;-56
2021/05/09 00:04:11;;;;;;;0.10;0.10;;;;;;;-142.37;100.00;59669.53;5071238;28;20103;-56
2021/05/09 00:06:37;;;;;;;0.13;0.05;;;;;;;-142.37;100.00;59669.53;5071336;28;20032;-56
2021/05/09 00:09:03;;;;;;;0.20;0.13;;;;;;;-142.37;100.00;59669.53;5071266;28;20032;-56
2021/05/09 00:11:28;;;;;;;0.30;0.10;;;;;;;-142.37;100.00;59669.53;5071492;28;20040;-56
2021/05/09 00:13:54;;;;;;;0.10;0.10;;;;;;;-142.37;100.00;59669.53;5071476;28;20021;-56
2021/05/09 00:16:19;;;;;;;0.10;0.10;;;;;;;-142.37;100.00;59669.53;5071382;28;20032;-56
2021/05/09 00:18:44;;;;;;;0.00;0.00;;;;;;;-142.37;100.00;59669.53;5071357;28;20069;-56
2021/05/09 00:21:10;;;;;;;0.85;0.10;;;;;;;-142.37;100.00;59669.53;5052758;28;532221;-56
2021/05/09 00:23:35;;;;;;;0.00;0.00;;;;;;;-142.37;100.00;59669.53;5071940;28;20074;-56
2021/05/09 00:26:00;;;;;;;0.10;0.10;;;;;;;-142.37;100.00;59669.53;5072422;28;20414;-56
2021/05/09 00:28:26;;;;;;;0.75;0.30;;;;;;;-142.37;100.00;59669.53;5074708;28;20020;-56
2021/05/09 00:30:51;;;;;;;0.10;0.10;;;;;;;-142.37;100.00;59669.53;5057440;28;20029;-56
2021/05/09 00:33:17;;;;;;;0.10;0.10;;;;;;;-142.37;100.00;59669.53;5070178;28;20025;-56
2021/05/09 00:35:42;;;;;;;0.08;0.08;;;;;;;-142.37;100.00;59669.53;5076343;28;20039;-56
2021/05/09 00:38:08;;;;;;;0.20;0.10;;;;;;;-142.37;100.00;59669.53;5075992;28;20414;-56
2021/05/09 00:40:33;;;;;;;0.17;0.17;;;;;;;-142.37;100.00;59669.53;5075773;28;20384;-56
2021/05/09 00:42:59;;;;;;;0.10;0.10;;;;;;;-142.37;100.00;59669.53;5076237;28;20107;-57
2021/05/09 00:45:24;;;;;;;0.20;0.15;;;;;;;-142.37;100.00;59669.53;5075306;28;20028;-57
2021/05/09 00:47:50;;;;;;;0.10;0.10;;;;;;;-142.37;100.00;59669.53;5075930;28;20422;-56
2021/05/09 00:50:16;;;;;;;0.13;0.10;;;;;;;-142.37;100.00;59669.53;5075806;28;20029;-56
2021/05/09 00:52:45;;;;;;;0.10;0.10;;;;;;;-142.37;100.00;59669.53;5075657;28;20028;-56
2021/05/09 00:55:11;;;;;;;0.10;0.10;;;;;;;-142.37;100.00;59669.53;5075872;28;20031;-56
2021/05/09 00:57:39;;;;;;;0.10;0.10;;;;;;;-142.37;100.00;59669.53;5075590;28;20112;-57
2021/05/09 01:00:09;;;;;;;0.13;0.10;;;;;;;-142.37;100.00;59669.53;5075632;28;20039;-56
2021/05/09 01:02:35;;;;;;;0.13;0.13;;;;;;;-142.37;100.00;59669.53;5075572;28;20029;-56
2021/05/09 01:05:02;;;;;;;0.17;0.17;;;;;;;-142.37;100.00;59669.53;5075557;28;20526;-56
2021/05/09 01:07:28;;;;;;;0.10;0.10;;;;;;;-142.37;100.00;59669.53;5075344;28;20047;-57
2021/05/09 01:09:53;;;;;;;0.20;0.20;;;;;;;-142.37;100.00;59669.53;5075409;28;20021;-56
2021/05/09 01:12:19;;;;;;;0.00;0.00;;;;;;;-142.37;100.00;59669.53;5075212;28;20032;-56
2021/05/09 01:14:45;;;;;;;0.13;0.10;;;;;;;-142.37;100.00;59669.53;5075584;28;20371;-56
2021/05/09 01:17:12;;;;;;;0.10;0.10;;;;;;;-142.37;100.00;59669.53;5075354;28;20044;-57
2021/05/09 01:19:38;;;;;;;0.05;0.05;;;;;;;-142.37;100.00;59669.53;5073415;28;20383;-56
2021/05/09 01:22:05;;;;;;;0.20;0.20;;;;;;;-142.37;100.00;59669.53;5075155;28;20444;-56
2021/05/09 01:24:31;;;;;;;0.20;0.10;;;;;;;-142.37;100.00;59669.53;5074567;28;20028;-56
2021/05/09 01:26:56;;;;;;;0.43;0.20;;;;;;;-142.37;100.00;59669.53;5075477;28;20438;-56
2021/05/09 01:29:21;;;;;;;0.10;0.10;;;;;;;-142.37;100.00;59669.53;5074856;28;20025;-56
2021/05/09 01:31:48;;;;;;;0.10;0.10;;;;;;;-142.37;100.00;59669.53;5075582;28;20027;-56
2021/05/09 01:34:13;;;;;;;1.10;0.10;;;;;;;-142.37;100.00;59669.53;5074896;28;20038;-56
2021/05/09 01:36:39;;;;;;;0.20;0.13;;;;;;;-142.37;100.00;59669.53;5075115;28;20111;-56
2021/05/09 01:39:05;;;;;;;0.10;0.10;;;;;;;-142.37;100.00;59669.53;5074673;28;20086;-56
2021/05/09 01:41:31;;;;;;;0.30;0.20;;;;;;;-142.37;100.00;59669.53;5075120;28;20646;-57
2021/05/09 01:43:56;;;;;;;0.13;0.13;;;;;;;-142.37;100.00;59669.53;5074823;28;20119;-56
2021/05/09 01:46:21;;;;;;;0.10;0.10;;;;;;;-142.37;100.00;59669.53;5074826;28;20103;-56
2021/05/09 01:48:47;;;;;;;0.20;0.20;;;;;;;-142.37;100.00;59669.53;5074645;28;20025;-56
2021/05/09 01:51:12;;;;;;;0.10;0.10;;;;;;;-142.37;100.00;59669.53;5074724;28;20021;-57
2021/05/09 01:53:37;;;;;;;0.47;0.17;;;;;;;-142.37;100.00;59669.53;5074758;28;20044;-56
2021/05/09 01:56:03;;;;;;;0.10;0.10;;;;;;;-142.37;100.00;59669.53;5074550;28;20032;-56
2021/05/09 01:58:28;;;;;;;0.10;0.00;;;;;;;-142.37;100.00;59669.53;5074395;28;20456;-56
2021/05/09 02:00:53;;;;;;;0.75;0.20;;;;;;;-142.37;100.00;59669.53;5074622;28;20020;-56
2021/05/09 02:03:19;;;;;;;0.10;0.10;;;;;;;-142.37;100.00;59669.53;5074365;28;20462;-56
2021/05/09 02:05:44;;;;;;;0.10;0.10;;;;;;;-142.37;100.00;59669.53;5074660;28;20024;-56
2021/05/09 02:08:09;;;;;;;0.25;0.10;;;;;;;-142.37;100.00;59669.53;5074633;28;20032;-56
2021/05/09 02:10:35;;;;;;;0.10;0.10;;;;;;;-142.37;100.00;59669.53;5074117;28;20037;-56
2021/05/09 02:13:00;;;;;;;0.10;0.10;;;;;;;-142.37;100.00;59669.53;5074711;28;20048;-56
2021/05/09 02:15:25;;;;;;;0.05;0.05;;;;;;;-142.37;100.00;59669.53;5074044;28;20471;-56
2021/05/09 02:17:50;;;;;;;0.00;0.00;;;;;;;-142.37;100.00;59669.53;5074268;28;20094;-56
2021/05/09 02:20:16;;;;;;;0.10;0.10;;;;;;;-142.37;100.00;59669.53;5073465;28;20487;-56
2021/05/09 02:22:41;;;;;;;0.30;0.17;;;;;;;-142.37;100.00;59669.53;5073737;28;20067;-56
2021/05/09 02:25:07;;;;;;;0.10;0.10;;;;;;;-142.37;100.00;59669.53;5074307;28;20397;-56
2021/05/09 02:27:33;;;;;;;0.20;0.10;;;;;;;-142.37;100.00;59669.53;5073736;28;20060;-56
2021/05/09 02:29:58;;;;;;;0.10;0.10;;;;;;;-142.37;100.00;59669.53;5074015;28;20463;-56
2021/05/09 02:32:24;;;;;;;0.22;0.22;;;;;;;-142.37;100.00;59669.53;5073441;28;20427;-56
2021/05/09 02:34:49;;;;;;;0.10;0.05;;;;;;;-142.37;100.00;59669.53;5074115;28;20051;-56
2021/05/09 02:37:15;;;;;;;0.10;0.10;;;;;;;-142.37;100.00;59669.53;5073815;28;20028;-56
2021/05/09 02:39:40;;;;;;;0.20;0.10;;;;;;;-142.37;100.00;59669.53;5073506;28;20071;-56
2021/05/09 02:42:05;;;;;;;0.10;0.10;;;;;;;-142.37;100.00;59669.53;5074064;28;20048;-57
2021/05/09 02:44:31;;;;;;;0.17;0.17;;;;;;;-142.37;100.00;59669.53;5073498;28;20054;-57
2021/05/09 02:46:56;;;;;;;0.10;0.10;;;;;;;-142.37;100.00;59669.53;5073927;28;20032;-57
2021/05/09 02:49:22;;;;;;;0.20;0.20;;;;;;;-142.37;100.00;59669.53;5072740;28;20021;-57
2021/05/09 02:51:47;;;;;;;0.10;0.10;;;;;;;-142.37;100.00;59669.53;5073242;28;20020;-56
2021/05/09 02:54:12;;;;;;;0.10;0.10;;;;;;;-142.37;100.00;59669.53;5073732;28;20017;-56
2021/05/09 02:56:38;;;;;;;0.10;0.10;;;;;;;-142.37;100.00;59669.53;5073282;28;20028;-56
2021/05/09 02:59:03;;;;;;;0.30;0.20;;;;;;;-142.37;100.00;59669.53;5073451;28;20032;-57
2021/05/09 03:01:28;;;;;;;0.00;0.00;;;;;;;-142.37;100.00;59669.53;5073369;28;20032;-57
2021/05/09 03:03:54;;;;;;;0.60;0.10;;;;;;;-142.37;100.00;59669.53;5073476;28;20024;-57
2021/05/09 03:06:19;;;;;;;0.10;0.10;;;;;;;-142.37;100.00;59669.53;5073378;28;20154;-56
2021/05/09 03:08:44;;;;;;;0.10;0.10;;;;;;;-142.37;100.00;59669.53;5073096;28;20052;-57
2021/05/09 03:11:10;;;;;;;0.00;0.00;;;;;;;-142.37;100.00;59669.53;5073411;28;20048;-57
2021/05/09 03:13:35;;;;;;;0.10;0.00;;;;;;;-142.37;100.00;59669.53;5072756;28;20236;-57
2021/05/09 03:16:02;;;;;;;0.10;0.10;;;;;;;-142.37;100.00;59669.53;5073644;28;20044;-57
2021/05/09 03:18:28;;;;;;;0.10;0.10;;;;;;;-142.37;100.00;59669.53;5072160;28;20029;-57
2021/05/09 03:20:53;;;;;;;0.52;0.20;;;;;;;-142.37;100.00;59669.53;5072779;28;20052;-56
2021/05/09 03:23:19;;;;;;;0.20;0.20;;;;;;;-142.37;100.00;59669.53;5072870;28;20103;-56
2021/05/09 03:25:45;;;;;;;0.05;0.05;;;;;;;-142.37;100.00;59669.53;5071580;28;20034;-56
2021/05/09 03:28:11;;;;;;;0.05;0.00;;;;;;;-142.37;100.00;59669.53;5071999;28;20052;-56
2021/05/09 03:30:36;;;;;;;0.10;0.10;;;;;;;-142.37;100.00;59669.53;5071439;28;20537;-57
2021/05/09 03:33:02;;;;;;;0.20;0.10;;;;;;;-142.37;100.00;59669.53;5072793;28;20064;-57
2021/05/09 03:35:27;;;;;;;0.10;0.10;;;;;;;-142.37;100.00;59669.53;5071981;28;20036;-57
2021/05/09 03:37:52;;;;;;;0.10;0.10;;;;;;;-142.37;100.00;59669.53;5073020;28;20028;-56
2021/05/09 03:40:17;;;;;;;0.10;0.10;;;;;;;-142.37;100.00;59669.53;5072450;28;20020;-57
2021/05/09 03:42:43;;;;;;;0.20;0.10;;;;;;;-142.37;100.00;59669.53;5072828;28;20050;-56
2021/05/09 03:45:09;;;;;;;0.35;0.00;;;;;;;-142.37;100.00;59669.53;5072705;28;20028;-57
2021/05/09 03:47:36;;;;;;;0.10;0.10;;;;;;;-142.37;100.00;59669.53;5072366;28;20024;-57
2021/05/09 03:50:02;;;;;;;0.10;0.00;;;;;;;-142.37;100.00;59669.53;5073196;28;20028;-56
2021/05/09 03:52:27;;;;;;;0.50;0.20;;;;;;;-142.37;100.00;59669.53;5071979;28;20043;-56
2021/05/09 03:54:52;;;;;;;0.10;0.10;;;;;;;-142.37;100.00;59669.53;5072459;28;20033;-56
2021/05/09 03:57:18;;;;;;;0.10;0.10;;;;;;;-142.37;100.00;59669.53;5072650;28;20140;-56
2021/05/09 03:59:43;;;;;;;0.15;0.15;;;;;;;-142.37;100.00;59669.53;5072429;28;20016;-56
2021/05/09 04:02:09;;;;;;;1.55;0.20;;;;;;;-142.37;100.00;59669.53;5072297;28;20416;-56
2021/05/09 04:04:34;;;;;;;0.30;0.08;;;;;;;-142.37;100.00;59669.53;5072150;28;20027;-56
2021/05/09 04:07:00;;;;;;;0.20;0.20;;;;;;;-142.37;100.00;59669.53;5072513;28;20036;-56
2021/05/09 04:09:25;;;;;;;0.10;0.10;;;;;;;-142.37;100.00;59669.53;5072098;28;20108;-56
2021/05/09 04:11:50;;;;;;;0.10;0.10;;;;;;;-142.37;100.00;59669.53;5072594;28;20115;-57
2021/05/09 04:14:16;;;;;;;0.63;0.17;;;;;;;-142.37;100.00;59669.53;5072245;28;20060;-57
2021/05/09 04:16:42;;;;;;;0.10;0.10;;;;;;;-142.37;100.00;59669.53;5072420;28;20025;-57
2021/05/09 04:19:07;;;;;;;0.10;0.10;;;;;;;-142.37;100.00;59669.53;5071564;28;20039;-57
2021/05/09 04:21:32;;;;;;;0.08;0.08;;;;;;;-142.37;100.00;59669.53;5072003;28;20080;-57
2021/05/09 04:23:57;;;;;;;0.03;0.03;;;;;;;-142.37;100.00;59669.53;5072336;28;20048;-57
2021/05/09 04:26:23;;;;;;;0.20;0.20;;;;;;;-142.37;100.00;59669.53;5072527;28;20027;-57
2021/05/09 04:28:49;;;;;;;0.40;0.20;;;;;;;-142.37;100.00;59669.53;5072058;28;20032;-57
2021/05/09 04:31:14;;;;;;;0.28;0.28;;;;;;;-142.37;100.00;59669.53;5072317;28;20028;-57
2021/05/09 04:33:39;;;;;;;0.22;0.20;;;;;;;-142.37;100.00;59669.53;5071881;28;20497;-57
2021/05/09 04:36:05;;;;;;;0.35;0.10;;;;;;;-142.37;100.00;59669.53;5072379;28;20096;-56
2021/05/09 04:38:31;;;;;;;0.20;0.20;;;;;;;-142.37;100.00;59669.53;5071283;28;20690;-57
2021/05/09 04:40:56;;;;;;;0.20;0.20;;;;;;;-142.37;100.00;59669.53;5072390;28;20021;-57
2021/05/09 04:43:22;;;;;;;0.20;0.10;;;;;;;-142.37;100.00;59669.53;5071889;28;20375;-56
2021/05/09 04:45:52;;;;;;;0.25;0.20;;;;;;;-142.37;100.00;59669.53;5072229;28;20033;-56
2021/05/09 04:48:17;;;;;;;0.10;0.10;;;;;;;-142.37;100.00;59669.53;5071869;28;20048;-56
2021/05/09 04:50:43;;;;;;;0.10;0.10;;;;;;;-142.37;100.00;59669.53;5072322;28;20231;-56
2021/05/09 04:53:32;;;;;;;0.10;0.10;;;;;;;-142.37;100.00;59669.53;5072383;28;20020;-56
2021/05/09 04:55:59;;;;;;;0.80;0.20;;;;;;;-142.37;100.00;59669.53;5072240;28;20371;-56
2021/05/09 04:58:26;;;;;;;0.40;0.20;;;;;;;-142.37;100.00;59669.53;5071313;28;20046;-56
2021/05/09 05:00:56;;;;;;;0.10;0.10;;;;;;;-142.37;100.00;59669.53;5072057;28;20043;-56
2021/05/09 05:03:21;;;;;;;0.10;0.10;;;;;;;-142.37;100.00;59669.53;5071693;28;20069;-56
2021/05/09 05:05:47;;;;;;;0.10;0.10;;;;;;;-142.37;100.00;59669.53;5071829;28;20024;-56
2021/05/09 05:08:12;;;;;;;0.10;0.10;;;;;;;-142.37;100.00;59669.53;5071780;28;20024;-56
2021/05/09 05:10:38;;;;;;;0.20;0.20;;;;;;;-142.37;100.00;59669.53;5071781;28;20428;-56
2021/05/09 05:13:15;;;;;;;0.10;0.10;;;;;;;-142.37;100.00;59669.53;5072769;28;20025;-57
2021/05/09 05:15:41;;;;;;;0.30;0.20;;;;;;;-142.37;100.00;59669.53;5075814;28;20043;-56
2021/05/09 05:18:06;;;;;;;0.10;0.10;;;;;;;-142.37;100.00;59669.53;5075384;28;20024;-57
2021/05/09 05:20:31;;;;;;;0.20;0.20;;;;;;;-142.37;100.00;59669.53;5074539;28;20460;-56
2021/05/09 05:22:56;;;;;;;0.10;0.10;;;;;;;-142.37;100.00;59669.53;5075602;28;20028;-56
2021/05/09 05:25:22;;;;;;;0.10;0.10;;;;;;;-142.37;100.00;59669.53;5075041;28;20040;-56
2021/05/09 05:27:47;;;;;;;0.10;0.10;;;;;;;-142.37;100.00;59669.53;5075200;28;20459;-57
2021/05/09 05:30:13;;;;;;;0.30;0.20;;;;;;;-142.37;100.00;59669.53;5075189;28;20103;-56
2021/05/09 05:32:40;;;;;;;0.15;0.10;;;;;;;-142.37;100.00;59669.53;5074920;28;20024;-56
2021/05/09 05:35:06;;;;;;;0.15;0.10;;;;;;;-142.37;100.00;59669.53;5075225;28;20024;-56
2021/05/09 05:37:31;;;;;;;0.10;0.10;;;;;;;-142.37;100.00;59669.53;5075005;28;20111;-56
2021/05/09 05:39:56;;;;;;;0.20;0.20;;;;;;;-142.37;100.00;59669.53;5074495;28;20023;-56
2021/05/09 05:42:22;;;;;;;0.40;0.10;;;;;;;-142.37;100.00;59669.53;5073640;28;20379;-56
2021/05/09 05:44:47;;;;;;;0.10;0.10;;;;;;;-142.37;100.00;59669.53;5074789;28;20027;-56
2021/05/09 05:47:12;;;;;;;0.10;0.10;;;;;;;-142.37;100.00;59669.53;5074800;28;20028;-57
2021/05/09 05:49:37;;;;;;;0.10;0.10;;;;;;;-142.37;100.00;59669.53;5074381;28;20063;-56
2021/05/09 05:52:03;;;;;;;0.25;0.10;;;;;;;-142.37;100.00;59669.53;5074836;28;20032;-56
2021/05/09 05:54:28;;;;;;;0.10;0.10;;;;;;;-142.37;100.00;59669.53;5074675;28;20021;-57
2021/05/09 05:56:53;;;;;;;0.10;0.08;;;;;;;-142.37;100.00;59669.53;5074678;28;20025;-57
2021/05/09 05:59:19;;;;;;;0.32;0.10;;;;;;;-142.37;100.00;59669.53;5074622;28;20024;-57
2021/05/09 06:01:44;;;;;;;0.17;0.17;;;;;;;-142.37;100.00;59669.53;5074635;28;20402;-56
2021/05/09 06:04:09;;;;;;;0.10;0.10;;;;;;;-142.37;100.00;59669.53;5074555;28;20036;-57
2021/05/09 06:06:35;;;;;;;0.35;0.10;;;;;;;-142.37;100.00;59669.53;5074742;28;20020;-56
2021/05/09 06:09:02;;;;;;;0.30;0.13;;;;;;;-142.37;100.00;59669.53;5074345;28;20395;-57
2021/05/09 06:11:27;;;;;;;0.20;0.20;;;;;;;-142.37;100.00;59669.53;5074513;28;20025;-57
2021/05/09 06:13:53;;;;;;;0.20;0.13;;;;;;;-142.37;100.00;59669.53;5074203;28;20030;-56
2021/05/09 06:16:18;;;;;;;0.20;0.10;;;;;;;-142.37;100.00;59669.53;5073943;28;20070;-58
2021/05/09 06:18:43;;;;;;;0.47;0.08;;;;;;;-142.37;100.00;59669.53;5074174;28;20028;-57
2021/05/09 06:21:08;;;;;;;0.10;0.10;;;;;;;-142.37;100.00;59669.53;5072305;28;20094;-56
2021/05/09 06:23:34;;;;;;;0.10;0.10;;;;;;;-142.37;100.00;59669.53;5073729;28;20353;-57
2021/05/09 06:25:59;;;;;;;0.08;0.08;;;;;;;-142.37;100.00;59669.53;5073259;28;20028;-57
2021/05/09 06:28:24;;;;;;;0.20;0.10;;;;;;;-142.37;100.00;59669.53;5073751;28;20056;-57
2021/05/09 06:30:49;;;;;;;0.10;0.10;;;;;;;-142.37;100.00;59669.53;5074190;28;20036;-57
2021/05/09 06:33:15;;;;;;;0.10;0.10;;;;;;;-142.37;100.00;59669.53;5073896;28;20060;-57
2021/05/09 06:35:42;;;;;;;0.08;0.08;;;;;;;-142.37;100.00;59669.53;5074329;28;20031;-57
2021/05/09 06:38:07;;;;;;;0.05;0.05;;;;;;;-142.37;100.00;59669.53;5072933;28;20077;-57
2021/05/09 06:40:34;;;;;;;0.10;0.00;;;;;;;-142.37;100.00;59669.53;5073072;28;20395;-56
2021/05/09 06:43:01;;;;;;;0.10;0.10;;;;;;;-142.37;100.00;59669.53;5074075;28;20029;-56
2021/05/09 06:45:29;;;;;;;0.10;0.10;;;;;;;-142.37;100.00;59669.53;5073587;28;20041;-57
2021/05/09 06:47:56;;;;;;;0.10;0.10;;;;;;;-142.37;100.00;59669.53;5073627;28;20021;-57
2021/05/09 06:50:21;;;;;;;0.00;0.00;;;;;;;-142.37;100.00;59669.53;5073187;28;20033;-57
2021/05/09 06:52:47;;;;;;;0.20;0.08;;;;;;;-142.37;100.00;59669.53;5073657;28;20043;-56
2021/05/09 06:55:12;;;;;;;0.00;0.00;;;;;;;-142.37;100.00;59669.53;5073758;28;20056;-56
2021/05/09 06:57:38;;;;;;;0.00;0.00;;;;;;;-142.37;100.00;59669.53;5073293;28;20088;-56
2021/05/09 07:00:06;;;;;;;0.00;0.00;;;;;;;-142.37;100.00;59669.53;5073654;28;20016;-56
2021/05/09 07:02:32;;;;;;;0.20;0.10;;;;;;;-142.37;100.00;59669.53;5073048;28;20670;-57
2021/05/09 07:04:57;;;;;;;0.10;0.10;;;;;;;-142.37;100.00;59669.53;5073931;28;20032;-56
2021/05/09 07:07:22;;;;;;;0.10;0.10;;;;;;;-142.37;100.00;59669.53;5073325;28;20033;-56
2021/05/09 07:09:47;;;;;;;0.03;0.03;;;;;;;-142.37;100.00;59669.53;5072924;28;20027;-56
2021/05/09 07:12:13;;;;;;;0.10;0.10;;;;;;;-142.37;100.00;59669.53;5073332;28;20518;-56
2021/05/09 07:14:38;;;;;;;0.00;0.00;;;;;;;-142.37;100.00;59669.53;5072878;28;20380;-56
2021/05/09 07:17:03;;;;;;;0.00;0.00;;;;;;;-142.37;100.00;59669.53;5072711;28;20421;-56
2021/05/09 07:19:28;;;;;;;0.05;0.03;;;;;;;-142.37;100.00;59669.53;5070700;28;20059;-56
2021/05/09 07:21:58;;;;;;;0.20;0.10;;;;;;;-142.37;100.00;59669.53;5072918;28;20055;-56
2021/05/09 07:24:23;;;;;;;0.10;0.10;;;;;;;-142.37;100.00;59669.53;5072356;28;20423;-56
2021/05/09 07:26:48;;;;;;;0.10;0.10;;;;;;;-142.37;100.00;59669.53;5073161;28;20028;-56
2021/05/09 07:29:14;;;;;;;0.88;0.10;;;;;;;-142.37;100.00;59669.53;5071527;28;20029;-57
2021/05/09 07:31:41;;;;;;;0.10;0.00;;;;;;;-142.37;100.00;59669.53;5072807;28;20062;-56
2021/05/09 07:34:07;;;;;;;0.10;0.10;;;;;;;-142.37;100.00;59669.53;5072709;28;20039;-56
2021/05/09 07:36:32;;;;;;;0.03;0.03;;;;;;;-142.37;100.00;59669.53;5072212;28;20103;-57
2021/05/09 07:38:58;;;;;;;0.10;0.10;;;;;;;-142.37;100.00;59669.53;5072438;28;20099;-56
2021/05/09 07:41:23;;;;;;;0.00;0.00;;;;;;;-142.37;100.00;59669.53;5072856;28;20051;-56
2021/05/09 07:43:49;;;;;;;0.05;0.05;;;;;;;-142.37;100.00;59669.53;5072767;28;20056;-56
2021/05/09 07:46:14;;;;;;;0.10;0.00;;;;;;;-142.37;100.00;59669.53;5072780;28;20024;-56
2021/05/09 07:48:39;;;;;;;0.00;0.00;;;;;;;-142.37;100.00;59669.53;5072267;28;20028;-56
2021/05/09 07:51:05;;;;;;;0.00;0.00;;;;;;;-142.37;100.00;59669.53;5072840;28;20028;-56
2021/05/09 07:53:30;;;;;;;0.00;0.00;;;;;;;-142.37;100.00;59669.53;5072607;28;20028;-56
2021/05/09 07:55:55;;;;;;;0.20;0.00;;;;;;;-142.37;100.00;59669.53;5072747;28;20115;-56
2021/05/09 07:58:21;;;;;;;0.55;0.00;;;;;;;-142.37;100.00;59669.53;5072091;28;20074;-56
2021/05/09 08:00:48;;;;;;;0.00;0.00;;;;;;;-142.37;100.00;59669.53;5071275;28;20017;-56
2021/05/09 08:03:14;;;;;;;0.10;0.10;;;;;;;-142.37;100.00;59669.53;5072240;28;20103;-56
2021/05/09 08:05:39;;;;;;;0.10;0.00;;;;;;;-142.37;100.00;59669.53;5072338;28;20436;-56
2021/05/09 08:08:05;;;;;;;0.00;0.00;;;;;;;-142.37;100.00;59669.53;5072748;28;20050;-56
2021/05/09 08:10:36;;;;;;;0.03;0.03;;;;;;;-142.37;100.00;59669.53;5071950;28;20474;-56
2021/05/09 08:13:06;;;;;;;0.20;0.13;;;;;;;-142.37;100.00;59669.53;5072688;28;20040;-56
2021/05/09 08:15:32;;;;;;;0.00;0.00;;;;;;;-142.37;100.00;59669.53;5071905;28;20059;-56
2021/05/09 08:17:58;;;;;;;0.15;0.00;;;;;;;-142.37;100.00;59669.53;5072060;28;20029;-56
2021/05/09 08:20:24;;;;;;;0.00;0.00;;;;;;;-142.37;100.00;59669.53;5071935;28;20119;-56
2021/05/09 08:22:49;;;;;;;0.05;0.05;;;;;;;-142.37;100.00;59669.53;5072340;28;20051;-56
2021/05/09 08:25:16;;;;;;;0.00;0.00;;;;;;;-142.37;100.00;59669.53;5072120;28;20426;-56
2021/05/09 08:27:41;;;;;;;0.40;0.00;;;;;;;-142.37;100.00;59669.53;5072117;28;20032;-56
2021/05/09 08:30:07;;;;;;;0.00;0.00;;;;;;;-142.37;100.00;59669.53;5072130;28;20024;-56
2021/05/09 08:32:32;;;;;;;0.00;0.00;;;;;;;-142.37;100.00;59669.53;5072066;28;20407;-55
2021/05/09 08:34:59;;;;;;;0.05;0.03;;;;;;;-142.37;100.00;59669.53;5072262;28;20024;-56
2021/05/09 08:37:25;;;;;;;0.10;0.10;;;;;;;-142.37;100.00;59669.53;5072187;28;20402;-55
2021/05/09 08:39:51;;;;;;;0.00;0.00;;;;;;;-142.37;100.00;59669.53;5071924;28;20036;-55
2021/05/09 08:42:18;;;;;;;0.00;0.00;;;;;;;-142.37;100.00;59669.53;5072238;28;20074;-55
2021/05/09 08:44:48;;;;;;;0.00;0.00;;;;;;;-142.37;100.00;59669.53;5071932;28;20109;-55
2021/05/09 08:47:15;;;;;;;0.10;0.10;;;;;;;-142.37;100.00;59669.53;5072035;28;20050;-55
2021/05/09 08:49:42;;;;;;;0.32;0.10;;;;;;;-142.37;100.00;59669.53;5075198;28;20068;-55
2021/05/09 08:52:11;;;;;;;0.10;0.10;;;;;;;-142.37;100.00;59669.53;5075897;28;20123;-55
2021/05/09 08:54:37;;;;;;;0.00;0.00;;;;;;;-142.37;100.00;59669.53;5075915;28;20067;-55
2021/05/09 08:57:05;;;;;;;0.05;0.05;;;;;;;-142.37;100.00;59669.53;5075845;28;20063;-55
2021/05/09 08:59:31;;;;;;;0.10;0.03;;;;;;;-142.37;100.00;59669.53;5075562;28;20039;-55
2021/05/09 09:01:57;;;;;;;0.20;0.10;;;;;;;-142.37;100.00;59669.53;5075930;28;20032;-55
2021/05/09 09:04:23;;;;;;;0.55;0.03;;;;;;;-142.37;100.00;59669.53;5075477;28;20029;-55
2021/05/09 09:06:48;;;;;;;0.00;0.00;;;;;;;-142.37;100.00;59669.53;5075852;28;20028;-55
2021/05/09 09:09:21;;;;;;;0.03;0.03;;;;;;;-142.37;100.00;59669.53;5074123;28;20040;-55
2021/05/09 09:11:56;;;;;;;0.00;0.00;;;;;;;-142.37;100.00;59669.53;5074855;28;20028;-55
2021/05/09 09:14:25;;;;;;;0.03;0.00;;;;;;;-142.37;100.00;59669.53;5075088;28;20042;-55
2021/05/09 09:17:10;;;;;;;0.10;0.10;;;;;;;-142.37;100.00;59669.53;5075041;28;20082;-55
2021/05/09 09:19:56;;;;;;;0.00;0.00;;;;;;;-142.37;100.00;59669.53;5075118;28;20086;-55
2021/05/09 09:22:21;;;;;;;0.32;0.00;;;;;;;-142.37;100.00;59669.53;5075143;28;20111;-55
2021/05/09 09:25:09;;;;;;;0.00;0.00;;;;;;;-142.37;100.00;59669.53;5075026;28;20468;-55
2021/05/09 09:27:42;;;;;;;0.00;0.00;;;;;;;-142.37;100.00;59669.53;5066639;28;20044;-55
2021/05/09 09:30:08;;;;;;;0.00;0.00;;;;;;;-142.37;100.00;59669.53;5075464;28;20036;-55
2021/05/09 09:32:33;;;;;;;0.17;0.17;;;;;;;-142.37;100.00;59669.53;5073562;28;20387;-55
2021/05/09 09:34:59;;;;;;;0.10;0.10;;;;;;;-142.37;100.00;59669.53;5075124;28;20028;-55
2021/05/09 09:37:32;;;;;;;0.00;0.00;;;;;;;-142.37;100.00;59669.53;5075114;28;20024;-55
2021/05/09 09:40:02;;;;;;;0.00;0.00;;;;;;;-142.37;100.00;59669.53;5075514;28;20074;-55
2021/05/09 09:42:36;;;;;;;0.17;0.00;;;;;;;-142.37;100.00;59669.53;5074990;28;20067;-55
2021/05/09 09:45:21;;;;;;;0.10;0.10;;;;;;;-142.37;100.00;59669.53;5074890;28;20147;-55
2021/05/09 09:47:54;;;;;;;1.13;0.00;;;;;;;-142.37;100.00;59669.53;5075147;28;20029;-55
2021/05/09 09:50:38;;;;;;;0.00;0.00;;;;;;;-142.37;100.00;59669.53;5074525;28;20032;-55
2021/05/09 09:53:38;;;;;;;0.20;0.10;;;;;;;-142.37;100.00;59669.53;5073559;28;20119;-56
2021/05/09 09:56:06;;;;;;;0.00;0.00;;;;;;;-142.37;100.00;59669.53;5012752;28;20030;-55
2021/05/09 09:59:02;;;;;;;0.00;0.00;;;;;;;-142.37;100.00;59669.53;5008810;28;20068;-55
2021/05/09 10:01:35;;;;;;;0.00;0.00;;;;;;;-142.37;100.00;59669.53;5007003;28;20040;-55
2021/05/09 10:04:05;;;;;;;0.00;0.00;;;;;;;-142.37;100.00;59669.53;5012090;28;20044;-55
2021/05/09 10:06:31;;;;;;;0.00;0.00;;;;;;;-142.37;100.00;59669.53;5012340;28;20096;-55
2021/05/09 10:08:58;;;;;;;0.00;0.00;;;;;;;-142.37;100.00;59669.53;4990184;28;20489;-55
2021/05/09 10:11:25;;;;;;;0.13;0.13;;;;;;;-142.37;100.00;59669.53;4992739;28;20061;-55
2021/05/09 10:13:52;;;;;;;0.10;0.10;;;;;;;-142.37;100.00;59669.53;4997539;28;20038;-55
2021/05/09 10:16:22;;;;;;;0.08;0.05;;;;;;;-142.37;100.00;59669.53;5010806;28;20029;-55
2021/05/09 10:18:51;;;;;;;0.00;0.00;;;;;;;-142.37;100.00;59669.53;4994130;28;20039;-55
2021/05/09 10:21:16;;;;;;;0.10;0.10;;;;;;;-142.37;100.00;59669.53;4992552;28;20449;-55
2021/05/09 10:24:07;;;;;;;0.10;0.10;;;;;;;-142.37;100.00;59669.53;4992579;28;20034;-55
2021/05/09 10:26:32;;;;;;;0.00;0.00;;;;;;;-142.37;100.00;59669.53;4992249;28;20633;-55
2021/05/09 10:28:57;;;;;;;0.00;0.00;;;;;;;-142.37;100.00;59669.53;5000784;28;20041;-55
2021/05/09 10:31:29;;;;;;;0.10;0.10;;;;;;;-142.37;100.00;59669.53;5015610;28;20034;-56
2021/05/09 10:33:54;;;;;;;0.08;0.08;;;;;;;-142.37;100.00;59669.53;5070230;28;20365;-55
2021/05/09 10:36:20;;;;;;;0.10;0.10;;;;;;;-142.37;100.00;59669.53;5073838;28;20028;-55
2021/05/09 10:39:15;;;;;;;0.00;0.00;;;;;;;-142.37;100.00;59669.53;5073521;28;20023;-55
2021/05/09 10:41:55;;;;;;;0.10;0.10;;;;;;;-142.37;100.00;59669.53;5074246;28;20009;-55
2021/05/09 10:44:41;;;;;;;0.32;0.15;;;;;;;-142.37;100.00;59669.53;5073512;28;20032;-55
2021/05/09 10:47:16;;;;;;;0.08;0.05;;;;;;;-142.37;100.00;59669.53;5073494;28;20039;-55
2021/05/09 10:50:12;;;;;;;0.10;0.00;;;;;;;-142.37;100.00;59669.53;5073808;28;20062;-55
2021/05/09 10:52:39;;;;;;;0.10;0.10;;;;;;;-142.37;100.00;59669.53;5073436;28;20024;-55
2021/05/09 10:55:05;;;;;;;0.10;0.10;;;;;;;-142.37;100.00;59669.53;5073855;28;20066;-55
2021/05/09 10:57:53;;;;;;;0.00;0.00;;;;;;;-142.37;100.00;59669.53;5073347;28;20028;-55
2021/05/09 11:00:18;;;;;;;0.00;0.00;;;;;;;-142.37;100.00;59669.53;5073482;28;20029;-55
2021/05/09 11:02:43;;;;;;;0.10;0.10;;;;;;;-142.37;100.00;59669.53;5073616;28;20440;-55
2021/05/09 11:05:09;;;;;;;0.00;0.00;;;;;;;-142.37;100.00;59669.53;5073524;28;20035;-55
2021/05/09 11:07:42;;;;;;;0.00;0.00;;;;;;;-142.37;100.00;59669.53;5073304;28;20032;-55
2021/05/09 11:10:46;;;;;;;0.10;0.10;;;;;;;-142.37;100.00;59669.53;5073398;28;20487;-55